Time;durP1;ratioP1;P1;durP2;ratioP2;P2;SDS_P1;SDS_P2;PMS_P1;PMS_P2;Temp;Humidity;BMP_temperature;BMP_pressure;BME280_temperature;BME280_humidity;BME280_pressure;Samples;Min_cycle;Max_cycle;Signal;HPM_P1;HPM_P2
2022/01/30 00:00:35;;;;;;;1.80;1.50;;;;;;;4.37;92.36;97806.52;433084;1270;193841;-61
2022/01/30 00:10:41;;;;;;;2.50;0.70;;;;;;;4.41;90.52;97825.85;447208;1270;141070;-60
2022/01/30 00:21:00;;;;;;;4.20;1.30;;;;;;;4.09;88.68;97831.41;437407;1271;143490;-60
2022/01/30 00:31:06;;;;;;;1.30;0.60;;;;;;;3.91;88.31;97851.38;447430;1270;142263;-61
2022/01/30 00:41:12;;;;;;;1.90;0.70;;;;;;;3.63;86.50;97875.13;438353;1271;143847;-59
2022/01/30 00:51:19;;;;;;;5.90;1.70;;;;;;;3.13;86.12;97890.69;447145;1271;141898;-61
2022/01/30 01:01:25;;;;;;;6.00;0.90;;;;;;;2.62;85.82;97895.39;434961;1273;143759;-60
2022/01/30 01:32:18;;;;;;;3.70;1.20;;;;;;;2.02;85.97;97892.06;443898;1270;142095;-62
2022/01/30 01:42:28;;;;;;;4.60;1.70;;;;;;;2.22;85.67;97881.80;444062;1270;144223;-64
2022/01/30 01:52:34;;;;;;;5.10;1.70;;;;;;;2.49;84.65;97850.77;442633;1270;141955;-61
2022/01/30 02:02:43;;;;;;;9.90;1.30;;;;;;;2.65;83.69;97831.83;433473;1270;142182;-64
2022/01/30 02:12:53;;;;;;;4.80;1.40;;;;;;;2.69;83.44;97801.16;431962;1271;141537;-64
2022/01/30 02:33:24;;;;;;;8.90;1.70;;;;;;;2.77;82.90;97782.02;431128;1273;142099;-63
2022/01/30 02:43:34;;;;;;;3.90;1.80;;;;;;;2.72;83.27;97807.59;431649;1273;141549;-63
2022/01/30 02:53:44;;;;;;;7.50;1.70;;;;;;;2.52;83.53;97780.77;430850;1272;142520;-65
2022/01/30 03:03:49;;;;;;;6.40;1.70;;;;;;;2.36;83.52;97770.32;431078;1273;146054;-67
2022/01/30 03:13:55;;;;;;;9.50;2.00;;;;;;;2.29;83.21;97772.77;429906;1273;141815;-64
2022/01/30 03:24:01;;;;;;;9.30;3.30;;;;;;;2.28;83.17;97766.66;443026;1271;142696;-64
2022/01/30 03:34:10;;;;;;;8.30;1.60;;;;;;;2.44;82.49;97740.96;447496;1271;142509;-64
2022/01/30 03:44:16;;;;;;;7.90;2.20;;;;;;;2.62;82.03;97726.27;446737;1270;142200;-64
2022/01/30 03:54:22;;;;;;;6.80;1.70;;;;;;;2.75;81.23;97712.52;433438;1271;141663;-64
2022/01/30 04:04:28;;;;;;;15.00;2.60;;;;;;;2.65;81.05;97702.44;439906;1271;141388;-66
2022/01/30 04:14:35;;;;;;;8.30;1.60;;;;;;;2.59;80.89;97687.44;445811;1273;142917;-64
2022/01/30 04:24:41;;;;;;;9.50;1.60;;;;;;;2.55;81.06;97664.35;446666;1271;144217;-64
2022/01/30 04:34:54;;;;;;;6.10;1.70;;;;;;;2.58;80.57;97683.67;447434;1271;142595;-62
2022/01/30 04:56:12;;;;;;;3.40;1.00;;;;;;;2.45;80.96;97685.84;440651;1271;145215;-63
2022/01/30 05:06:12;;;;;;;1.30;0.80;;;;;;;1.35;81.99;97713.23;447455;1271;143051;-64
2022/01/30 05:16:20;;;;;;;3.50;0.80;;;;;;;0.35;83.92;97698.32;438195;1271;144703;-63
2022/01/30 05:26:27;;;;;;;4.10;1.50;;;;;;;-0.17;84.77;97674.49;439521;1271;142949;-63
2022/01/30 05:36:36;;;;;;;5.80;1.70;;;;;;;-0.08;86.07;97655.98;447483;1270;143239;-64
2022/01/30 05:46:49;;;;;;;4.60;1.60;;;;;;;0.13;86.49;97638.26;435784;1271;142894;-65
2022/01/30 05:56:55;;;;;;;8.40;1.70;;;;;;;-0.02;86.65;97617.49;441641;1271;142890;-65
2022/01/30 06:07:01;;;;;;;5.90;1.90;;;;;;;0.09;86.79;97599.54;447509;1271;142479;-64
2022/01/30 06:17:07;;;;;;;5.10;1.50;;;;;;;0.65;86.37;97593.23;437606;1271;196663;-63
2022/01/30 06:27:18;;;;;;;4.10;1.00;;;;;;;1.10;85.82;97568.36;447485;1269;141226;-65
2022/01/30 06:37:24;;;;;;;3.80;0.70;;;;;;;1.32;85.45;97541.41;443540;1271;142297;-64
2022/01/30 06:47:30;;;;;;;5.40;1.20;;;;;;;1.37;85.08;97518.68;439636;1271;144869;-64
2022/01/30 06:57:41;;;;;;;7.80;2.30;;;;;;;1.40;85.02;97477.99;437527;1271;144215;-63
2022/01/30 07:07:47;;;;;;;5.00;1.40;;;;;;;1.63;84.52;97460.39;436313;1271;142507;-62
2022/01/30 07:17:53;;;;;;;3.60;1.10;;;;;;;1.79;84.36;97471.67;435272;1273;207368;-64
2022/01/30 07:27:59;;;;;;;3.10;1.60;;;;;;;1.82;84.07;97459.91;441658;1271;144146;-63
2022/01/30 07:38:05;;;;;;;7.50;1.80;;;;;;;1.86;83.82;97471.25;432617;1271;146594;-64
2022/01/30 07:48:11;;;;;;;8.00;2.10;;;;;;;1.93;83.73;97471.16;435908;1271;141176;-64
2022/01/30 07:58:17;;;;;;;4.30;2.80;;;;;;;1.95;83.45;97490.87;435855;1271;141752;-64
2022/01/30 08:08:22;;;;;;;11.60;2.20;;;;;;;1.88;83.81;97497.17;434340;1271;141639;-63
2022/01/30 08:18:29;;;;;;;13.00;3.20;;;;;;;1.64;84.43;97510.56;433884;1271;142149;-62
2022/01/30 08:28:34;;;;;;;3.90;1.70;;;;;;;1.33;85.23;97514.61;433547;1272;140970;-64
2022/01/30 08:38:40;;;;;;;5.30;2.40;;;;;;;1.12;85.80;97524.64;430876;1270;141510;-63
2022/01/30 08:48:46;;;;;;;4.70;1.20;;;;;;;1.01;86.90;97586.27;431126;1271;142868;-63
2022/01/30 08:58:52;;;;;;;3.00;1.00;;;;;;;0.78;86.98;97602.21;432312;1271;143293;-64
2022/01/30 09:08:59;;;;;;;5.10;1.00;;;;;;;0.25;87.14;97617.83;431610;1271;141126;-63
2022/01/30 09:19:05;;;;;;;5.00;1.00;;;;;;;0.32;88.05;97594.89;433198;1271;142319;-64
2022/01/30 09:29:11;;;;;;;7.30;2.40;;;;;;;1.04;88.13;97614.48;429903;1271;145126;-64
2022/01/30 09:39:37;;;;;;;4.00;2.40;;;;;;;1.45;87.55;97618.57;430877;1271;141907;-62
2022/01/30 09:49:47;;;;;;;5.10;1.70;;;;;;;1.56;87.61;97599.98;437153;1271;141825;-63
2022/01/30 09:59:55;;;;;;;8.10;2.70;;;;;;;1.95;87.28;97589.24;432449;1271;155111;-63
2022/01/30 10:10:12;;;;;;;7.70;2.20;;;;;;;1.94;86.89;97582.54;437014;1271;142372;-63
2022/01/30 10:20:19;;;;;;;5.30;2.20;;;;;;;1.99;87.05;97571.91;435403;1271;144732;-64
2022/01/30 10:30:25;;;;;;;;;;;;;;;2.00;86.84;97576.52;437606;1273;141222;-64
2022/01/30 10:40:37;;;;;;;7.60;2.60;;;;;;;2.01;86.99;97566.25;439900;1270;494096;-63
2022/01/30 10:50:44;;;;;;;13.00;3.10;;;;;;;2.01;86.76;97573.85;445991;1270;144513;-62
2022/01/30 11:00:52;;;;;;;10.70;3.20;;;;;;;2.04;86.85;97574.40;430364;1270;143420;-64
2022/01/30 11:11:10;;;;;;;6.30;2.70;;;;;;;2.16;86.79;97610.95;429613;1271;180958;-63
2022/01/30 11:21:16;;;;;;;;;;;;;;;2.24;86.81;97626.86;442081;1271;141448;-64
2022/01/30 11:31:22;;;;;;;10.50;2.90;;;;;;;2.24;86.61;97639.41;446294;1270;129932;-64
2022/01/30 11:41:31;;;;;;;6.40;2.50;;;;;;;2.29;86.96;97649.55;446704;1268;142169;-71
2022/01/30 11:51:49;;;;;;;6.50;3.10;;;;;;;2.24;86.74;97672.23;447513;1271;141158;-69
2022/01/30 12:02:23;;;;;;;8.80;3.00;;;;;;;2.24;86.99;97699.52;446673;1270;141406;-68
2022/01/30 12:12:49;;;;;;;5.30;2.20;;;;;;;2.14;86.93;97713.23;443906;1271;141343;-67
2022/01/30 12:22:55;;;;;;;5.60;2.10;;;;;;;1.99;87.43;97746.89;439444;1271;141430;-68
2022/01/30 12:33:02;;;;;;;6.10;1.90;;;;;;;1.98;87.85;97790.15;442329;1271;141485;-71
2022/01/30 12:43:08;;;;;;;4.30;1.60;;;;;;;1.85;88.03;97812.23;446968;1271;142305;-69
2022/01/30 12:53:14;;;;;;;3.60;1.40;;;;;;;1.92;88.20;97817.38;445910;1270;142193;-68
2022/01/30 13:03:20;;;;;;;7.30;2.00;;;;;;;2.04;88.28;97832.38;447271;1270;142519;-69
2022/01/30 13:13:26;;;;;;;5.50;1.90;;;;;;;2.16;87.56;97855.55;447264;1271;141542;-68
2022/01/30 13:23:32;;;;;;;6.50;2.00;;;;;;;2.28;87.32;97864.71;446559;1270;143291;-68
2022/01/30 13:33:38;;;;;;;7.00;2.10;;;;;;;2.39;87.00;97883.44;439090;1270;142187;-69
2022/01/30 13:43:54;;;;;;;5.80;1.50;;;;;;;2.46;86.29;97899.75;442368;1271;141369;-72
2022/01/30 13:54:10;;;;;;;8.40;2.30;;;;;;;2.56;85.34;97935.13;441952;1270;143471;-68
2022/01/30 14:04:16;;;;;;;11.70;2.90;;;;;;;2.66;84.35;97955.84;447385;1269;142126;-69
2022/01/30 14:14:23;;;;;;;5.50;2.10;;;;;;;2.79;83.11;97978.23;446526;1270;143701;-69
2022/01/30 14:24:29;;;;;;;12.80;2.70;;;;;;;2.88;82.79;97980.67;447385;1270;142340;-70
2022/01/30 14:34:35;;;;;;;8.10;2.80;;;;;;;2.94;82.02;98011.76;447450;1271;142880;-69
2022/01/30 14:44:41;;;;;;;9.80;3.10;;;;;;;3.01;81.22;98033.66;446149;1271;143806;-67
2022/01/30 14:54:48;;;;;;;6.60;2.00;;;;;;;3.12;80.23;98048.57;447027;1271;141977;-68
2022/01/30 15:04:56;;;;;;;6.00;1.40;;;;;;;3.23;79.53;98076.51;446572;1270;144878;-67
2022/01/30 15:15:02;;;;;;;6.40;2.80;;;;;;;3.24;79.65;98093.05;431880;1270;142450;-68
2022/01/30 15:25:10;;;;;;;5.50;2.70;;;;;;;3.22;79.06;98114.75;444143;1271;183582;-69
2022/01/30 15:35:17;;;;;;;4.50;1.50;;;;;;;3.26;77.89;98122.84;445945;1270;182579;-69
2022/01/30 15:55:47;;;;;;;3.60;1.30;;;;;;;3.38;75.75;98150.58;434548;1273;141484;-65
2022/01/30 16:05:54;;;;;;;7.90;1.60;;;;;;;3.36;75.39;98173.29;446579;1271;196776;-69
2022/01/30 16:16:00;;;;;;;4.70;2.50;;;;;;;3.29;75.18;98191.18;447083;1272;143001;-68
2022/01/30 16:26:06;;;;;;;5.20;2.40;;;;;;;3.30;74.65;98207.55;446429;1270;142653;-69
2022/01/30 16:36:12;;;;;;;5.20;1.80;;;;;;;3.28;74.86;98213.21;443189;1271;143416;-70
2022/01/30 16:46:42;;;;;;;3.80;2.10;;;;;;;3.27;73.99;98224.83;445921;1270;142603;-69
2022/01/30 16:56:48;;;;;;;7.00;1.60;;;;;;;3.26;73.77;98251.54;435199;1270;142111;-70
2022/01/30 17:06:54;;;;;;;11.00;1.90;;;;;;;3.15;73.63;98283.61;440700;1270;142286;-68
2022/01/30 17:17:00;;;;;;;5.80;1.90;;;;;;;2.79;74.93;98309.36;446118;1272;142486;-70
2022/01/30 17:27:07;;;;;;;6.40;2.30;;;;;;;2.47;76.63;98322.25;441811;1270;141577;-68
2022/01/30 17:37:13;;;;;;;8.30;3.10;;;;;;;2.09;77.88;98340.66;442983;1270;141542;-69
2022/01/30 17:47:20;;;;;;;10.70;2.10;;;;;;;2.01;78.31;98372.50;445928;1270;141666;-67
2022/01/30 17:57:26;;;;;;;5.70;1.90;;;;;;;1.90;78.44;98380.44;434566;1271;143650;-70
2022/01/30 18:07:32;;;;;;;7.40;1.60;;;;;;;2.03;77.90;98386.04;447241;1270;141947;-69
2022/01/30 18:17:38;;;;;;;5.60;1.90;;;;;;;2.36;76.26;98383.24;446428;1271;143369;-73
2022/01/30 18:27:45;;;;;;;4.20;2.60;;;;;;;2.56;74.71;98382.60;445396;1270;142566;-71
2022/01/30 18:37:56;;;;;;;4.70;1.10;;;;;;;2.67;74.18;98403.65;441886;1271;142375;-66
2022/01/30 18:48:03;;;;;;;6.20;1.80;;;;;;;2.72;73.63;98397.36;440607;1270;142039;-67
2022/01/30 18:58:12;;;;;;;9.00;1.60;;;;;;;2.74;72.78;98409.30;447302;1270;141487;-68
2022/01/30 19:08:19;;;;;;;7.80;2.90;;;;;;;2.77;71.53;98438.04;446500;1270;142488;-66
2022/01/30 19:18:28;;;;;;;5.80;1.40;;;;;;;2.78;70.60;98470.63;444539;1270;140679;-66
2022/01/30 19:28:34;;;;;;;4.70;1.60;;;;;;;2.56;71.62;98481.27;445066;1271;141177;-67
2022/01/30 19:38:40;;;;;;;7.20;3.00;;;;;;;2.22;73.54;98470.09;437138;1271;141761;-65
2022/01/30 19:48:47;;;;;;;3.70;1.30;;;;;;;1.97;73.98;98467.09;440418;1271;140928;-65
2022/01/30 19:58:52;;;;;;;2.50;0.90;;;;;;;2.08;72.90;98485.08;439945;1270;142661;-66
2022/01/30 20:08:58;;;;;;;4.40;1.40;;;;;;;2.22;71.90;98487.53;447341;1271;141333;-66
2022/01/30 20:19:04;;;;;;;7.00;1.90;;;;;;;2.18;72.24;98498.59;439915;1271;141660;-66
2022/01/30 20:29:10;;;;;;;3.40;1.30;;;;;;;2.14;72.28;98494.99;446654;1271;141876;-66
2022/01/30 20:39:16;;;;;;;10.80;2.10;;;;;;;2.13;71.21;98505.04;447392;1271;142482;-66
2022/01/30 20:49:26;;;;;;;8.00;2.60;;;;;;;2.10;71.37;98511.55;438491;1271;143135;-66
2022/01/30 20:59:32;;;;;;;4.70;1.70;;;;;;;2.04;71.69;98523.91;440883;1271;141727;-65
2022/01/30 21:09:39;;;;;;;6.70;2.60;;;;;;;2.02;71.72;98542.49;433207;1270;141057;-66
2022/01/30 21:19:45;;;;;;;7.50;2.30;;;;;;;1.99;71.18;98535.90;447304;1271;142508;-67
2022/01/30 21:29:51;;;;;;;6.10;2.00;;;;;;;1.98;70.94;98556.66;447402;1270;141082;-67
2022/01/30 21:39:57;;;;;;;9.20;1.90;;;;;;;1.97;70.57;98555.13;447176;1271;142204;-65
2022/01/30 21:50:03;;;;;;;6.60;2.80;;;;;;;1.92;70.24;98570.54;436452;1273;142229;-65
2022/01/30 22:00:12;;;;;;;7.40;2.10;;;;;;;1.82;70.60;98579.46;447042;1271;142271;-64
2022/01/30 22:10:19;;;;;;;15.80;3.20;;;;;;;1.71;71.08;98585.61;434515;1271;142321;-64
2022/01/30 22:20:25;;;;;;;6.40;2.10;;;;;;;1.60;71.48;98587.14;440388;1271;142632;-65
2022/01/30 22:30:32;;;;;;;12.50;4.60;;;;;;;1.52;71.73;98596.80;443146;1271;141038;-65
2022/01/30 22:40:38;;;;;;;14.00;3.90;;;;;;;1.43;72.05;98594.39;446021;1269;226030;-65
2022/01/30 22:50:44;;;;;;;15.60;4.90;;;;;;;1.36;72.33;98595.89;444162;1271;142998;-64
2022/01/30 23:00:50;;;;;;;11.40;3.20;;;;;;;1.30;72.51;98608.73;442541;1271;153112;-66
2022/01/30 23:10:56;;;;;;;12.20;2.80;;;;;;;1.21;72.83;98605.84;438199;1271;185889;-66
2022/01/30 23:21:02;;;;;;;3.50;1.90;;;;;;;1.11;72.81;98615.70;431076;1271;141932;-67
2022/01/30 23:31:08;;;;;;;10.80;3.70;;;;;;;1.02;72.87;98632.46;439590;1271;141311;-64
2022/01/30 23:41:22;;;;;;;11.30;2.80;;;;;;;0.92;73.19;98637.14;437062;1271;141543;-65
2022/01/30 23:51:28;;;;;;;10.50;2.80;;;;;;;0.84;73.53;98646.42;433865;1271;141723;-64
